createdAt,value
2018-03-12T00:02:01.271Z,21.67
2018-03-12T00:04:29.482Z,21.50
2018-03-12T00:06:57.712Z,19.70
2018-03-12T00:09:25.155Z,20.53
2018-03-12T00:11:52.602Z,20.93
2018-03-12T00:14:20.051Z,20.33
2018-03-12T00:16:47.512Z,21.40
2018-03-12T00:19:14.949Z,17.87
2018-03-12T00:21:42.418Z,21.67
2018-03-12T00:24:10.760Z,21.47
2018-03-12T00:26:38.972Z,21.83
2018-03-12T00:29:06.419Z,19.27
2018-03-12T00:31:33.942Z,17.50
2018-03-12T00:34:01.335Z,19.50
2018-03-12T00:36:28.774Z,19.80
2018-03-12T00:38:56.222Z,21.10
2018-03-12T00:41:24.435Z,17.47
2018-03-12T00:43:51.884Z,29.50
2018-03-12T00:46:19.339Z,30.20
2018-03-12T00:48:46.805Z,26.53
2018-03-12T00:51:14.265Z,22.73
2018-03-12T00:53:41.756Z,27.60
2018-03-12T00:56:09.183Z,25.67
2018-03-12T00:58:36.636Z,33.00
2018-03-12T01:01:04.099Z,32.17
2018-03-12T01:03:31.543Z,33.03
2018-03-12T01:05:59.003Z,36.50
2018-03-12T01:08:26.449Z,27.43
2018-03-12T01:10:53.888Z,38.63
2018-03-12T01:13:22.103Z,36.23
2018-03-12T01:15:49.555Z,29.93
2018-03-12T01:18:17.003Z,18.33
2018-03-12T01:20:44.475Z,26.93
2018-03-12T01:23:11.914Z,23.87
2018-03-12T01:25:39.362Z,37.60
2018-03-12T01:28:06.830Z,34.20
2018-03-12T01:30:34.276Z,33.47
2018-03-12T01:33:01.718Z,31.83
2018-03-12T01:35:29.944Z,23.63
2018-03-12T01:37:57.399Z,25.17
2018-03-12T01:40:24.851Z,18.67
2018-03-12T01:42:52.306Z,15.40
2018-03-12T01:45:19.745Z,13.30
2018-03-12T01:47:47.197Z,26.93
2018-03-12T01:50:14.647Z,28.03
2018-03-12T01:52:53.928Z,26.77
2018-03-12T01:55:21.367Z,21.50
2018-03-12T01:57:48.818Z,23.30
2018-03-12T02:00:16.263Z,19.53
2018-03-12T02:02:43.720Z,15.73
2018-03-12T02:05:11.179Z,13.07
2018-03-12T02:07:38.630Z,13.60
2018-03-12T02:10:06.079Z,16.57
2018-03-12T02:12:33.576Z,18.80
2018-03-12T02:15:01.040Z,18.53
2018-03-12T02:17:28.488Z,19.20
2018-03-12T02:19:56.720Z,29.40
2018-03-12T02:22:24.160Z,25.30
2018-03-12T02:24:52.360Z,33.37
2018-03-12T02:27:19.826Z,23.77
2018-03-12T02:29:47.270Z,16.03
2018-03-12T02:32:14.719Z,21.37
2018-03-12T02:34:42.172Z,19.20
2018-03-12T02:37:09.623Z,15.27
2018-03-12T02:39:37.845Z,36.70
2018-03-12T02:42:05.291Z,18.20
2018-03-12T02:44:32.751Z,15.80
2018-03-12T02:47:00.204Z,27.63
2018-03-12T02:49:27.643Z,29.00
2018-03-12T02:51:55.107Z,32.90
2018-03-12T02:54:22.548Z,30.77
2018-03-12T02:56:49.995Z,34.57
2018-03-12T02:59:18.206Z,30.97
2018-03-12T03:01:45.668Z,30.37
2018-03-12T03:04:13.109Z,31.80
2018-03-12T03:06:40.566Z,29.73
2018-03-12T03:09:08.027Z,24.60
2018-03-12T03:11:35.470Z,30.03
2018-03-12T03:14:02.914Z,23.20
2018-03-12T03:16:31.122Z,28.07
2018-03-12T03:18:58.599Z,21.73
2018-03-12T03:21:26.041Z,22.30
2018-03-12T03:23:53.493Z,30.27
2018-03-12T03:26:20.946Z,27.13
2018-03-12T03:28:48.388Z,30.20
2018-03-12T03:31:15.836Z,30.10
2018-03-12T03:33:43.343Z,39.57
2018-03-12T03:36:10.804Z,39.20
2018-03-12T03:38:38.260Z,38.83
2018-03-12T03:41:05.702Z,32.40
2018-03-12T03:43:33.156Z,39.83
2018-03-12T03:46:00.599Z,37.77
2018-03-12T03:48:28.067Z,36.80
2018-03-12T03:50:55.506Z,36.60
2018-03-12T03:53:22.975Z,47.87
2018-03-12T03:55:50.419Z,41.03
2018-03-12T03:58:17.863Z,49.27
2018-03-12T04:00:45.324Z,39.50
2018-03-12T04:03:12.772Z,35.90
2018-03-12T04:05:40.224Z,35.90
2018-03-12T04:08:08.452Z,43.37
2018-03-12T04:10:35.902Z,47.87
2018-03-12T04:13:03.366Z,50.17
2018-03-12T04:15:30.815Z,44.90
2018-03-12T04:17:58.254Z,48.27
2018-03-12T04:20:25.714Z,46.10
2018-03-12T04:22:53.164Z,47.17
2018-03-12T04:25:20.626Z,43.17
2018-03-12T04:27:48.059Z,43.17
2018-03-12T04:30:15.507Z,51.50
2018-03-12T04:32:43.727Z,55.83
2018-03-12T04:35:11.171Z,56.70
2018-03-12T04:37:38.632Z,55.70
2018-03-12T04:40:06.087Z,65.80
2018-03-12T04:42:33.544Z,60.40
2018-03-12T04:45:00.979Z,59.60
2018-03-12T04:47:28.432Z,59.40
2018-03-12T04:49:55.874Z,43.63
2018-03-12T04:52:24.091Z,62.63
2018-03-12T04:54:51.548Z,59.37
2018-03-12T04:57:19.031Z,69.17
2018-03-12T04:59:46.476Z,56.90
2018-03-12T05:02:14.689Z,72.10
2018-03-12T05:04:42.139Z,83.83
2018-03-12T05:07:09.592Z,66.77
2018-03-12T05:09:37.029Z,62.77
2018-03-12T05:12:04.487Z,51.87
2018-03-12T05:14:31.927Z,47.10
2018-03-12T05:16:59.379Z,40.60
2018-03-12T05:19:26.831Z,33.10
2018-03-12T05:21:54.499Z,33.60
2018-03-12T05:24:21.952Z,32.40
2018-03-12T05:26:49.431Z,30.80
2018-03-12T05:29:16.880Z,33.20
2018-03-12T05:31:44.324Z,27.57
2018-03-12T05:34:11.778Z,28.77
2018-03-12T05:36:39.243Z,30.43
2018-03-12T05:39:06.692Z,25.63
2018-03-12T05:54:29.751Z,25.93
2018-03-12T05:56:57.203Z,28.23
2018-03-12T05:59:24.656Z,27.50
2018-03-12T06:01:52.116Z,28.80
2018-03-12T06:04:19.582Z,32.73
2018-03-12T06:06:47.056Z,26.30
2018-03-12T06:09:17.308Z,27.50
2018-03-12T06:11:45.537Z,25.10
2018-03-12T06:14:12.975Z,33.03
2018-03-12T06:16:40.438Z,32.23
2018-03-12T06:19:07.883Z,43.47
2018-03-12T06:21:35.327Z,41.63
2018-03-12T06:24:02.799Z,44.10
2018-03-12T06:26:30.251Z,34.87
2018-03-12T06:28:57.688Z,38.30
2018-03-12T06:31:25.928Z,31.80
2018-03-12T06:33:53.364Z,38.83
2018-03-12T06:36:20.819Z,30.00
2018-03-12T06:38:48.289Z,27.70
2018-03-12T06:41:15.740Z,23.67
2018-03-12T06:43:43.187Z,19.53
2018-03-12T06:46:10.628Z,25.67
2018-03-12T06:48:38.077Z,19.07
2018-03-12T06:51:05.539Z,22.57
2018-03-12T06:53:32.972Z,19.83
2018-03-12T06:56:00.415Z,22.87
2018-03-12T06:58:28.676Z,22.40
2018-03-12T07:00:56.136Z,18.67
2018-03-12T07:03:23.595Z,16.67
2018-03-12T07:05:51.034Z,17.57
2018-03-12T07:08:18.480Z,17.03
2018-03-12T07:10:45.930Z,16.03
2018-03-12T07:13:13.377Z,13.83
2018-03-12T07:15:40.815Z,16.70
2018-03-12T07:18:08.268Z,15.93
2018-03-12T07:20:35.718Z,12.30
2018-03-12T07:23:03.167Z,14.87
2018-03-12T07:25:31.384Z,13.77
2018-03-12T07:27:58.827Z,14.33
2018-03-12T07:30:26.279Z,18.03
2018-03-12T07:32:53.747Z,15.10
2018-03-12T07:35:21.200Z,12.47
2018-03-12T07:37:48.655Z,14.03
2018-03-12T07:40:16.123Z,15.57
2018-03-12T07:42:43.592Z,11.57
2018-03-12T07:45:11.007Z,13.37
2018-03-12T07:47:38.466Z,12.23
2018-03-12T07:50:06.146Z,12.30
2018-03-12T07:52:33.587Z,10.80
2018-03-12T07:55:01.035Z,11.60
2018-03-12T07:57:29.255Z,11.77
2018-03-12T07:59:56.698Z,11.63
2018-03-12T08:02:24.152Z,11.70
2018-03-12T08:04:51.598Z,12.03
2018-03-12T08:07:19.051Z,14.03
2018-03-12T08:09:46.491Z,16.03
2018-03-12T08:12:14.704Z,11.67
2018-03-12T08:14:42.148Z,12.17
2018-03-12T08:17:09.666Z,11.67
2018-03-12T08:19:37.116Z,12.10
2018-03-12T08:22:04.559Z,12.40
2018-03-12T08:24:32.034Z,12.20
2018-03-12T08:26:59.475Z,11.80
2018-03-12T08:29:26.910Z,9.97
2018-03-12T08:31:54.359Z,11.30
2018-03-12T08:34:21.807Z,9.57
2018-03-12T08:36:49.264Z,11.30
2018-03-12T08:39:16.715Z,11.00
2018-03-12T08:41:44.712Z,12.20
2018-03-12T08:44:12.928Z,11.90
2018-03-12T08:46:41.134Z,8.93
2018-03-12T08:49:08.613Z,9.60
2018-03-12T08:51:36.035Z,10.40
2018-03-12T08:54:03.491Z,8.80
2018-03-12T08:56:30.934Z,9.43
2018-03-12T08:58:59.140Z,11.90
2018-03-12T09:01:26.607Z,7.43
2018-03-12T09:03:54.055Z,5.90
2018-03-12T09:06:21.499Z,5.90
2018-03-12T09:08:48.947Z,7.53
2018-03-12T09:11:16.408Z,8.20
2018-03-12T09:13:43.859Z,6.07
2018-03-12T09:16:11.308Z,6.50
2018-03-12T09:18:39.531Z,6.60
2018-03-12T09:21:06.983Z,6.50
2018-03-12T09:23:34.423Z,6.33
2018-03-12T09:26:01.880Z,5.47
2018-03-12T09:28:29.319Z,7.97
2018-03-12T09:30:56.767Z,6.60
2018-03-12T09:33:24.991Z,6.20
2018-03-12T09:35:52.455Z,6.57
2018-03-12T09:38:19.913Z,6.43
2018-03-12T09:40:48.110Z,6.47
2018-03-12T09:43:15.551Z,6.47
2018-03-12T09:45:43.072Z,7.23
2018-03-12T09:48:10.537Z,6.03
2018-03-12T09:50:38.016Z,6.97
2018-03-12T09:53:05.428Z,4.90
2018-03-12T09:55:32.876Z,6.80
2018-03-12T09:58:01.095Z,5.83
2018-03-12T10:00:28.555Z,6.03
2018-03-12T10:02:56.000Z,7.33
2018-03-12T10:05:23.440Z,5.43
2018-03-12T10:07:50.887Z,4.83
2018-03-12T10:10:18.334Z,5.87
2018-03-12T10:12:45.784Z,4.97
2018-03-12T10:15:14.013Z,6.07
2018-03-12T10:17:41.455Z,6.53
2018-03-12T10:20:08.903Z,4.50
2018-03-12T10:22:36.343Z,6.10
2018-03-12T10:25:03.807Z,5.07
2018-03-12T10:27:31.256Z,4.90
2018-03-12T10:29:58.696Z,4.17
2018-03-12T10:32:26.916Z,5.83
2018-03-12T10:34:54.351Z,4.33
2018-03-12T10:37:21.806Z,4.30
2018-03-12T10:39:49.248Z,4.87
2018-03-12T10:42:17.463Z,5.43
2018-03-12T10:44:44.907Z,4.67
2018-03-12T10:47:12.358Z,5.23
2018-03-12T10:49:39.803Z,4.03
2018-03-12T10:52:07.247Z,5.50
2018-03-12T10:54:35.467Z,4.43
2018-03-12T10:57:02.919Z,3.90
2018-03-12T10:59:30.367Z,3.67
2018-03-12T11:02:04.323Z,8.00
2018-03-12T11:04:48.468Z,2.57
2018-03-12T11:07:17.845Z,5.17
2018-03-12T11:09:45.283Z,4.27
2018-03-12T11:12:12.736Z,4.30
2018-03-12T11:14:40.195Z,2.97
2018-03-12T11:17:07.653Z,2.73
2018-03-12T11:19:35.112Z,4.07
2018-03-12T11:22:02.580Z,4.50
2018-03-12T11:24:30.046Z,3.00
2018-03-12T11:26:57.495Z,3.10
2018-03-12T11:29:24.943Z,5.43
2018-03-12T11:31:52.408Z,2.60
2018-03-12T11:34:19.876Z,4.70
2018-03-12T11:36:47.320Z,4.53
2018-03-12T11:39:14.767Z,3.50
2018-03-12T11:41:42.219Z,6.40
2018-03-12T11:44:09.655Z,4.30
2018-03-12T11:46:37.115Z,4.00
2018-03-12T11:49:04.601Z,3.93
2018-03-12T11:51:32.051Z,4.53
2018-03-12T11:53:59.523Z,5.80
2018-03-12T11:56:26.967Z,6.57
2018-03-12T11:58:54.416Z,6.80
2018-03-12T12:01:21.860Z,5.20
2018-03-12T12:03:49.307Z,7.10
2018-03-12T12:06:16.799Z,6.23
2018-03-12T12:08:44.235Z,6.70
2018-03-12T12:11:11.677Z,5.20
2018-03-12T12:13:40.707Z,6.67
2018-03-12T12:16:08.451Z,5.57
2018-03-12T12:18:35.909Z,6.30
2018-03-12T12:21:03.360Z,4.77
2018-03-12T12:23:31.578Z,4.97
2018-03-12T12:25:59.025Z,4.33
2018-03-12T12:28:26.476Z,5.40
2018-03-12T12:30:53.935Z,5.00
2018-03-12T12:33:21.392Z,3.73
2018-03-12T12:35:48.844Z,4.00
2018-03-12T12:38:16.293Z,6.60
2018-03-12T12:40:43.728Z,3.63
2018-03-12T12:43:11.182Z,3.77
2018-03-12T12:45:39.401Z,4.53
2018-03-12T12:48:06.852Z,4.10
2018-03-12T12:50:34.356Z,3.17
2018-03-12T12:53:01.744Z,3.40
2018-03-12T12:55:29.188Z,3.97
2018-03-12T12:57:56.637Z,3.80
2018-03-12T13:00:24.852Z,2.70
2018-03-12T13:02:52.347Z,3.40
2018-03-12T13:05:20.307Z,2.50
2018-03-12T13:07:47.753Z,3.00
2018-03-12T13:10:15.234Z,3.07
2018-03-12T13:12:42.669Z,3.43
2018-03-12T13:15:10.121Z,2.57
2018-03-12T13:17:37.566Z,2.70
2018-03-12T13:20:05.022Z,2.00
2018-03-12T13:22:32.488Z,3.07
2018-03-12T13:24:59.945Z,3.27
2018-03-12T13:27:27.391Z,3.17
2018-03-12T13:29:54.839Z,1.90
2018-03-12T13:32:22.288Z,5.23
2018-03-12T13:34:49.753Z,1.43
2018-03-12T13:37:17.192Z,1.90
2018-03-12T13:39:44.644Z,1.60
2018-03-12T13:42:12.083Z,1.17
2018-03-12T13:44:40.308Z,1.33
2018-03-12T13:47:07.760Z,1.87
2018-03-12T13:49:35.208Z,1.50
2018-03-12T13:52:02.686Z,1.83
2018-03-12T13:54:30.123Z,2.13
2018-03-12T13:56:57.570Z,1.53
2018-03-12T13:59:25.015Z,1.30
2018-03-12T14:01:52.460Z,3.43
2018-03-12T14:04:20.688Z,2.00
2018-03-12T14:06:48.141Z,1.20
2018-03-12T14:09:15.576Z,2.03
2018-03-12T14:11:43.039Z,1.60
2018-03-12T14:14:10.479Z,3.10
2018-03-12T14:16:37.948Z,4.10
2018-03-12T14:19:05.383Z,7.77
2018-03-12T14:21:32.831Z,2.80
2018-03-12T14:24:01.047Z,2.63
2018-03-12T14:26:28.491Z,2.10
2018-03-12T14:28:55.951Z,2.23
2018-03-12T14:31:23.405Z,1.30
2018-03-12T14:33:50.868Z,2.00
2018-03-12T14:36:19.088Z,2.80
2018-03-12T14:38:46.539Z,2.67
2018-03-12T14:41:13.977Z,1.47
2018-03-12T14:43:41.419Z,2.30
2018-03-12T14:46:08.868Z,2.27
2018-03-12T14:48:36.331Z,2.37
2018-03-12T14:51:03.764Z,1.10
2018-03-12T14:53:31.211Z,1.03
2018-03-12T14:55:58.664Z,1.33
2018-03-12T14:58:26.880Z,1.67
2018-03-12T15:00:54.351Z,1.10
2018-03-12T15:03:21.795Z,0.90
2018-03-12T15:05:49.244Z,2.33
2018-03-12T15:08:16.740Z,2.00
2018-03-12T15:10:44.164Z,2.03
2018-03-12T15:13:11.608Z,1.67
2018-03-12T15:15:39.069Z,3.60
2018-03-12T15:18:06.527Z,1.90
2018-03-12T15:20:33.975Z,1.87
2018-03-12T15:23:01.437Z,1.77
2018-03-12T15:25:28.875Z,2.90
2018-03-12T15:27:56.320Z,1.33
2018-03-12T15:30:24.544Z,1.40
2018-03-12T15:32:51.995Z,1.43
2018-03-12T15:35:19.457Z,1.17
2018-03-12T15:37:46.899Z,2.23
2018-03-12T15:40:14.352Z,3.57
2018-03-12T15:42:41.794Z,1.97
2018-03-12T15:45:09.246Z,1.50
2018-03-12T15:47:37.483Z,0.90
2018-03-12T15:50:05.688Z,1.30
2018-03-12T15:52:33.901Z,2.87
2018-03-12T15:55:01.371Z,1.97
2018-03-12T15:57:28.816Z,2.17
2018-03-12T15:59:56.271Z,1.53
2018-03-12T16:02:23.731Z,1.73
2018-03-12T16:04:51.168Z,1.57
2018-03-12T16:07:18.619Z,1.13
2018-03-12T16:09:46.061Z,2.70
2018-03-12T16:12:14.284Z,0.83
2018-03-12T16:14:41.735Z,1.13
2018-03-12T16:17:09.186Z,5.03
2018-03-12T16:19:36.632Z,1.70
2018-03-12T16:22:04.085Z,1.23
2018-03-12T16:24:31.636Z,0.90
2018-03-12T16:26:59.107Z,1.13
2018-03-12T16:29:26.568Z,1.90
2018-03-12T16:31:54.137Z,2.63
2018-03-12T16:34:22.604Z,1.50
2018-03-12T16:36:50.039Z,2.40
2018-03-12T16:39:17.480Z,2.00
2018-03-12T16:41:45.686Z,2.10
2018-03-12T16:44:13.127Z,3.80
2018-03-12T16:46:41.336Z,0.93
2018-03-12T16:49:08.784Z,4.90
2018-03-12T16:51:36.236Z,2.60
2018-03-12T16:54:03.672Z,2.33
2018-03-12T16:56:31.122Z,1.63
2018-03-12T16:58:59.323Z,2.00
2018-03-12T17:01:26.821Z,2.37
2018-03-12T17:03:54.252Z,1.27
2018-03-12T17:06:21.703Z,3.00
2018-03-12T17:08:49.152Z,0.60
2018-03-12T17:11:16.595Z,1.27
2018-03-12T17:13:44.033Z,0.93
2018-03-12T17:16:12.258Z,1.00
2018-03-12T17:18:39.748Z,1.33
2018-03-12T17:21:07.201Z,4.73
2018-03-12T17:23:34.667Z,1.70
2018-03-12T17:26:02.132Z,4.10
2018-03-12T17:28:30.345Z,4.70
2018-03-12T17:30:57.816Z,1.13
2018-03-12T17:33:26.020Z,2.20
2018-03-12T17:35:53.480Z,1.00
2018-03-12T17:38:20.942Z,2.10
2018-03-12T17:40:48.384Z,1.70
2018-03-12T17:43:15.842Z,1.03
2018-03-12T17:45:43.292Z,3.30
2018-03-12T17:48:10.739Z,4.43
2018-03-12T17:50:38.224Z,8.53
2018-03-12T17:53:05.668Z,8.50
2018-03-12T17:55:33.123Z,12.20
2018-03-12T17:58:00.619Z,11.07
2018-03-12T18:00:28.037Z,8.23
2018-03-12T18:02:55.480Z,3.40
2018-03-12T18:05:22.935Z,2.20
2018-03-12T18:07:50.389Z,4.37
2018-03-12T18:10:17.836Z,2.50
2018-03-12T18:12:45.288Z,6.53
2018-03-12T18:15:12.745Z,8.07
2018-03-12T18:17:40.220Z,5.27
2018-03-12T18:20:07.693Z,1.63
2018-03-12T18:22:35.145Z,1.50
2018-03-12T18:25:02.603Z,5.70
2018-03-12T18:27:30.816Z,1.90
2018-03-12T18:29:59.038Z,1.67
2018-03-12T18:32:26.482Z,2.20
2018-03-12T18:34:53.960Z,2.90
2018-03-12T18:37:21.410Z,4.60
2018-03-12T18:39:48.870Z,2.13
2018-03-12T18:42:16.353Z,1.93
2018-03-12T18:44:43.820Z,4.00
2018-03-12T18:47:11.285Z,4.10
2018-03-12T18:49:39.537Z,2.60
2018-03-12T18:52:07.001Z,3.30
2018-03-12T18:54:34.434Z,5.33
2018-03-12T18:57:01.885Z,2.17
2018-03-12T18:59:29.331Z,1.90
2018-03-12T19:01:56.781Z,4.93
2018-03-12T19:04:24.227Z,2.13
2018-03-12T19:06:51.692Z,5.47
2018-03-12T19:09:19.160Z,2.20
2018-03-12T19:11:46.592Z,3.60
2018-03-12T19:14:14.046Z,5.90
2018-03-12T19:16:41.487Z,3.83
2018-03-12T19:19:09.772Z,4.87
2018-03-12T19:21:37.988Z,5.20
2018-03-12T19:24:05.449Z,4.37
2018-03-12T19:26:32.952Z,2.37
2018-03-12T19:29:00.440Z,6.93
2018-03-12T19:31:28.024Z,3.97
2018-03-12T19:33:56.251Z,4.77
2018-03-12T19:36:24.824Z,1.53
2018-03-12T19:38:52.390Z,2.30
2018-03-12T19:41:20.621Z,2.77
2018-03-12T19:43:48.131Z,3.60
2018-03-12T19:46:16.368Z,2.00
2018-03-12T19:48:47.193Z,4.60
2018-03-12T19:51:15.859Z,3.03
2018-03-12T19:53:43.355Z,3.20
2018-03-12T19:56:10.822Z,4.00
2018-03-12T19:58:38.295Z,4.27
2018-03-12T20:01:06.663Z,3.10
2018-03-12T20:03:34.889Z,3.00
2018-03-12T20:06:02.897Z,6.63
2018-03-12T20:08:33.810Z,12.10
2018-03-12T20:11:01.405Z,5.40
2018-03-12T20:13:48.960Z,4.50
2018-03-12T20:16:16.436Z,3.33
2018-03-12T20:18:43.892Z,9.70
2018-03-12T20:21:11.362Z,11.73
2018-03-12T20:23:38.882Z,9.70
2018-03-12T20:26:06.668Z,8.00
2018-03-12T20:28:34.530Z,5.57
2018-03-12T20:31:02.363Z,4.43
2018-03-12T20:33:30.275Z,3.20
2018-03-12T20:35:58.119Z,3.97
2018-03-12T20:38:25.839Z,5.30
2018-03-12T20:40:54.221Z,3.63
2018-03-12T20:43:22.687Z,3.40
2018-03-12T20:45:50.528Z,5.97
2018-03-12T20:48:18.485Z,2.87
2018-03-12T20:50:46.264Z,3.10
2018-03-12T20:53:14.069Z,2.20
2018-03-12T20:55:41.712Z,2.13
2018-03-12T20:58:09.431Z,6.20
2018-03-12T21:00:37.411Z,4.30
2018-03-12T21:03:05.029Z,2.73
2018-03-12T21:05:32.635Z,1.70
2018-03-12T21:08:00.476Z,6.30
2018-03-12T21:10:28.728Z,1.10
2018-03-12T21:12:56.600Z,1.57
2018-03-12T21:15:24.392Z,1.10
2018-03-12T21:17:51.885Z,1.67
2018-03-12T21:20:19.335Z,1.50
2018-03-12T21:22:46.800Z,1.20
2018-03-12T21:25:14.247Z,1.10
2018-03-12T21:27:41.723Z,1.30
2018-03-12T21:30:09.217Z,4.37
2018-03-12T21:32:37.430Z,1.50
2018-03-12T21:35:04.890Z,2.03
2018-03-12T21:37:32.342Z,1.67
2018-03-12T21:39:59.829Z,4.00
2018-03-12T21:42:27.275Z,2.63
2018-03-12T21:44:54.712Z,1.17
2018-03-12T21:47:22.157Z,1.40
2018-03-12T21:49:49.601Z,1.13
2018-03-12T21:52:17.824Z,3.40
2018-03-12T21:54:45.261Z,1.00
2018-03-12T21:57:12.714Z,1.20
2018-03-12T21:59:40.144Z,0.90
2018-03-12T22:02:08.356Z,2.33
2018-03-12T22:04:35.806Z,4.70
2018-03-12T22:07:03.279Z,0.97
2018-03-12T22:09:30.715Z,0.90
2018-03-12T22:11:58.159Z,0.73
2018-03-12T22:14:25.620Z,1.80
2018-03-12T22:16:53.057Z,4.80
2018-03-12T22:19:21.280Z,2.10
2018-03-12T22:21:48.722Z,2.43
2018-03-12T22:24:16.185Z,3.20
2018-03-12T22:26:43.632Z,2.17
2018-03-12T22:29:11.076Z,3.27
2018-03-12T22:31:38.528Z,2.03
2018-03-12T22:34:05.969Z,1.77
2018-03-12T22:36:34.201Z,2.00
2018-03-12T22:39:01.635Z,1.87
2018-03-12T22:41:29.080Z,4.53
2018-03-12T22:43:56.525Z,1.80
2018-03-12T22:46:23.964Z,2.20
2018-03-12T22:48:52.176Z,3.33
2018-03-12T22:51:19.620Z,3.10
2018-03-12T22:53:47.065Z,1.80
2018-03-12T22:56:15.268Z,4.00
2018-03-12T22:58:42.711Z,2.63
2018-03-12T23:01:10.155Z,2.80
2018-03-12T23:03:37.601Z,3.67
2018-03-12T23:06:05.808Z,2.80
2018-03-12T23:08:33.252Z,3.30
2018-03-12T23:11:00.693Z,2.80
2018-03-12T23:13:28.919Z,5.30
2018-03-12T23:15:56.396Z,2.80
2018-03-12T23:18:23.852Z,2.80
2018-03-12T23:20:51.292Z,3.60
2018-03-12T23:23:18.751Z,4.17
2018-03-12T23:25:46.190Z,2.30
2018-03-12T23:28:13.634Z,3.37
2018-03-12T23:30:41.074Z,2.90
2018-03-12T23:33:09.291Z,4.30
2018-03-12T23:35:36.774Z,2.50
2018-03-12T23:38:04.215Z,4.03
2018-03-12T23:40:31.652Z,5.27
2018-03-12T23:42:59.095Z,2.93
2018-03-12T23:45:26.566Z,5.40
2018-03-12T23:47:54.008Z,3.40
2018-03-12T23:50:21.440Z,6.30
2018-03-12T23:52:49.647Z,2.87
2018-03-12T23:55:17.107Z,3.87
2018-03-12T23:57:44.557Z,5.77
